Time;durP1;ratioP1;P1;durP2;ratioP2;P2;SDS_P1;SDS_P2;PMS_P1;PMS_P2;Temp;Humidity;BMP_temperature;BMP_pressure;BME280_temperature;BME280_humidity;BME280_pressure;Samples;Min_cycle;Max_cycle;Signal;HPM_P1;HPM_P2
2022/04/12 00:00:10;;;;;;;9.00;6.20;;;;;;;3.04;74.35;100949.09;104888;1274;73665;-70
2022/04/12 00:02:36;;;;;;;8.50;5.80;;;;;;;3.03;74.49;100949.52;104922;1274;70294;-69
2022/04/12 00:05:04;;;;;;;11.10;6.40;;;;;;;3.02;74.74;100947.30;104830;1274;71690;-72
2022/04/12 00:08:02;;;;;;;13.80;7.60;;;;;;;3.01;74.73;100943.73;104735;1276;63629;-71
2022/04/12 00:10:29;;;;;;;12.10;6.60;;;;;;;3.00;74.93;100944.48;104731;1277;61098;-70
2022/04/12 00:12:57;;;;;;;10.50;6.90;;;;;;;2.99;75.10;100938.05;104895;1277;75010;-71
2022/04/12 00:15:25;;;;;;;10.00;6.50;;;;;;;2.99;75.08;100934.79;104894;1274;72736;-72
2022/04/12 00:20:41;;;;;;;9.60;5.80;;;;;;;2.99;75.23;100932.71;104818;1274;61502;-71
2022/04/12 00:23:12;;;;;;;10.30;6.80;;;;;;;2.98;75.07;100929.27;104867;1274;61249;-69
2022/04/12 00:25:42;;;;;;;13.30;7.10;;;;;;;2.96;75.25;100925.38;104880;1277;74992;-72
2022/04/12 00:28:12;;;;;;;10.00;6.40;;;;;;;2.96;74.93;100922.98;104820;1275;71557;-72
2022/04/12 00:30:48;;;;;;;13.20;7.80;;;;;;;2.94;75.25;100916.83;104838;1274;74447;-70
2022/04/12 00:33:15;;;;;;;10.00;5.70;;;;;;;2.95;75.36;100914.16;104863;1275;61491;-67
2022/04/12 00:35:41;;;;;;;11.80;7.80;;;;;;;2.94;75.44;100916.09;104839;1274;61281;-69
2022/04/12 00:38:23;;;;;;;12.20;6.60;;;;;;;2.94;75.73;100911.92;104838;1274;74931;-72
2022/04/12 00:40:51;;;;;;;9.10;6.30;;;;;;;2.92;75.37;100904.21;104858;1277;71529;-72
2022/04/12 00:43:46;;;;;;;10.50;7.60;;;;;;;2.91;75.61;100907.27;104743;1277;73101;-71
2022/04/12 00:46:13;;;;;;;12.20;7.40;;;;;;;2.89;75.49;100906.39;104863;1274;61615;-72
2022/04/12 00:48:40;;;;;;;9.20;5.90;;;;;;;2.87;75.59;100899.38;104846;1274;61141;-71
2022/04/12 00:51:06;;;;;;;14.70;7.90;;;;;;;2.85;75.98;100892.15;104841;1274;74914;-73
2022/04/12 00:53:34;;;;;;;15.60;8.30;;;;;;;2.83;75.69;100887.25;104847;1277;71431;-72
2022/04/12 00:56:01;;;;;;;14.50;7.70;;;;;;;2.82;76.09;100888.04;104728;1277;72911;-72
2022/04/12 00:58:29;;;;;;;10.50;6.80;;;;;;;2.80;76.29;100889.25;104856;1275;62345;-69
2022/04/12 01:00:56;;;;;;;13.60;7.60;;;;;;;2.77;75.98;100885.44;104893;1274;61401;-70
2022/04/12 01:03:26;;;;;;;13.80;7.40;;;;;;;2.75;76.20;100882.52;104856;1274;73990;-69
2022/04/12 01:05:54;;;;;;;15.80;8.40;;;;;;;2.72;76.07;100878.56;104885;1274;72607;-71
2022/04/12 01:08:21;;;;;;;9.20;5.20;;;;;;;2.70;76.15;100878.04;104875;1274;74051;-71
2022/04/12 01:10:50;;;;;;;10.70;7.00;;;;;;;2.67;76.25;100878.38;104787;1274;61259;-70
2022/04/12 01:13:26;;;;;;;11.90;7.50;;;;;;;2.65;76.41;100875.07;104914;1275;62550;-68
2022/04/12 01:15:52;;;;;;;11.20;7.70;;;;;;;2.62;76.75;100870.86;104874;1275;74936;-73
2022/04/12 01:18:19;;;;;;;12.50;7.40;;;;;;;2.61;77.17;100874.14;104846;1275;71342;-68
2022/04/12 01:20:48;;;;;;;13.80;7.40;;;;;;;2.60;77.03;100873.50;104828;1275;76562;-71
2022/04/12 01:23:29;;;;;;;14.30;7.30;;;;;;;2.58;77.02;100872.80;104796;1277;62346;-72
2022/04/12 01:25:59;;;;;;;12.20;7.80;;;;;;;2.56;77.03;100873.16;104866;1274;61274;-70
2022/04/12 01:28:26;;;;;;;13.60;7.90;;;;;;;2.52;77.16;100871.67;104753;1277;74975;-72
2022/04/12 01:30:54;;;;;;;10.60;6.20;;;;;;;2.49;77.21;100868.27;104875;1275;70536;-72
2022/04/12 01:33:21;;;;;;;12.50;7.00;;;;;;;2.46;77.39;100872.71;105008;1275;73002;-70
2022/04/12 01:35:58;;;;;;;;;;;;;;;;;;;;;
2022/04/12 01:38:25;;;;;;;12.30;7.40;;;;;;;2.39;77.53;100866.39;104688;1277;61351;-70
2022/04/12 01:40:54;;;;;;;13.00;7.60;;;;;;;2.36;77.65;100862.27;104882;1275;76023;-69
2022/04/12 01:43:23;;;;;;;14.20;7.20;;;;;;;2.34;77.69;100862.07;104863;1274;72295;-70
2022/04/12 01:45:50;;;;;;;13.00;7.60;;;;;;;2.32;77.85;100861.55;104882;1274;73085;-70
2022/04/12 01:48:17;;;;;;;14.90;7.40;;;;;;;2.30;78.00;100854.88;104732;1277;62176;-72
2022/04/12 01:50:43;;;;;;;10.50;6.60;;;;;;;2.29;78.36;100852.36;104852;1275;61936;-71
2022/04/12 01:53:10;;;;;;;11.50;6.80;;;;;;;2.27;78.43;100845.02;104867;1274;74900;-70
2022/04/12 01:55:37;;;;;;;12.50;7.80;;;;;;;2.24;78.53;100844.88;104872;1274;71617;-71
2022/04/12 01:58:04;;;;;;;15.30;7.80;;;;;;;2.22;78.73;100848.85;104931;1274;74072;-71
2022/04/12 02:00:31;;;;;;;7.20;4.40;;;;;;;2.21;78.85;100845.46;104876;1274;61247;-68
2022/04/12 02:02:58;;;;;;;9.60;6.40;;;;;;;2.21;79.29;100850.13;104910;1275;61343;-69
2022/04/12 02:05:31;;;;;;;10.50;6.00;;;;;;;2.21;79.36;100845.77;104862;1275;74748;-71
2022/04/12 02:07:58;;;;;;;10.10;6.50;;;;;;;2.23;79.53;100848.77;104764;1274;72429;-71
2022/04/12 02:10:28;;;;;;;9.70;5.90;;;;;;;2.23;79.42;100847.02;104868;1274;73115;-71
2022/04/12 02:12:54;;;;;;;8.10;5.40;;;;;;;2.24;79.38;100856.18;104831;1274;62542;-71
2022/04/12 02:15:22;;;;;;;9.70;5.70;;;;;;;2.24;79.43;100861.09;104857;1275;61242;-70
2022/04/12 02:17:48;;;;;;;7.50;5.70;;;;;;;2.26;79.33;100865.85;104831;1274;76194;-71
2022/04/12 02:20:15;;;;;;;11.00;6.30;;;;;;;2.25;79.19;100867.48;104849;1274;72555;-72
2022/04/12 02:22:45;;;;;;;11.40;6.10;;;;;;;2.23;79.21;100860.82;104873;1274;72967;-70
2022/04/12 02:25:14;;;;;;;11.00;6.90;;;;;;;2.21;79.04;100858.71;104938;1275;61265;-69
2022/04/12 02:27:41;;;;;;;9.70;6.50;;;;;;;2.19;79.24;100852.44;104845;1274;61778;-68
2022/04/12 02:30:18;;;;;;;13.20;6.60;;;;;;;2.16;79.26;100850.36;104761;1275;73827;-71
2022/04/12 02:32:44;;;;;;;11.00;6.30;;;;;;;2.13;79.43;100849.02;104847;1274;72406;-73
2022/04/12 02:35:12;;;;;;;7.90;4.60;;;;;;;2.11;79.49;100845.86;104877;1275;73106;-72
2022/04/12 02:37:38;;;;;;;9.10;6.70;;;;;;;2.11;79.69;100843.98;104748;1277;62817;-72
2022/04/12 02:40:06;;;;;;;15.50;7.00;;;;;;;2.09;79.74;100839.52;104879;1274;61197;-70
2022/04/12 02:42:32;;;;;;;12.80;7.40;;;;;;;2.08;79.70;100841.58;104864;1274;75045;-72
2022/04/12 02:44:59;;;;;;;8.50;6.00;;;;;;;2.06;79.77;100835.94;104820;1275;61263;-69
2022/04/12 02:47:28;;;;;;;15.60;7.20;;;;;;;2.04;79.56;100833.44;104833;1275;74015;-72
2022/04/12 02:49:54;;;;;;;9.20;5.40;;;;;;;2.02;79.61;100838.14;104952;1274;61465;-69
2022/04/12 02:52:21;;;;;;;11.40;6.90;;;;;;;2.02;79.69;100837.30;104421;1274;599966;-70
2022/04/12 02:54:48;;;;;;;11.20;6.20;;;;;;;2.00;79.80;100841.25;104745;1277;74962;-69
2022/04/12 02:57:15;;;;;;;13.00;7.90;;;;;;;2.00;79.85;100837.79;104741;1277;71362;-72
2022/04/12 02:59:42;;;;;;;11.00;6.70;;;;;;;1.99;80.00;100838.39;104742;1274;74154;-72
2022/04/12 03:02:08;;;;;;;11.90;7.20;;;;;;;1.98;80.00;100836.03;104889;1274;61371;-69
2022/04/12 03:04:41;;;;;;;9.70;6.10;;;;;;;1.96;80.03;100835.80;104873;1274;61815;-68
2022/04/12 03:07:08;;;;;;;13.20;7.70;;;;;;;1.95;80.09;100842.52;104876;1275;74946;-72
2022/04/12 03:09:35;;;;;;;14.50;8.20;;;;;;;1.93;79.94;100841.80;104894;1274;72413;-71
2022/04/12 03:12:04;;;;;;;12.50;6.90;;;;;;;1.92;79.89;100842.09;104838;1274;72922;-71
2022/04/12 03:14:31;;;;;;;9.30;5.50;;;;;;;1.90;80.14;100835.41;104825;1275;62579;-73
2022/04/12 03:16:59;;;;;;;14.00;6.80;;;;;;;1.90;80.24;100836.13;104872;1277;61252;-70
2022/04/12 03:19:27;;;;;;;11.40;6.80;;;;;;;1.89;80.14;100837.20;104926;1274;75327;-70
2022/04/12 03:22:00;;;;;;;12.40;7.30;;;;;;;1.89;80.32;100834.96;104927;1274;72721;-71
2022/04/12 03:24:30;;;;;;;16.70;7.20;;;;;;;1.89;80.27;100835.68;104857;1274;72903;-71
2022/04/12 03:26:57;;;;;;;17.90;8.40;;;;;;;1.89;80.34;100833.89;104839;1275;61481;-71
2022/04/12 03:29:27;;;;;;;12.30;5.90;;;;;;;1.92;80.37;100834.41;104850;1277;63644;-72
2022/04/12 03:31:54;;;;;;;15.00;7.70;;;;;;;1.94;80.33;100830.38;104821;1277;77266;-70
2022/04/12 03:34:21;;;;;;;12.30;6.90;;;;;;;1.96;80.36;100829.67;104860;1274;72399;-72
2022/04/12 03:36:50;;;;;;;11.90;7.30;;;;;;;2.00;80.42;100828.70;104852;1274;74504;-69
2022/04/12 03:39:21;;;;;;;13.80;6.90;;;;;;;2.04;80.29;100827.36;104685;1277;61246;-72
2022/04/12 03:41:52;;;;;;;10.70;6.60;;;;;;;2.09;80.23;100827.37;104793;1274;61246;-70
2022/04/12 03:44:18;;;;;;;16.80;7.60;;;;;;;2.12;80.30;100828.50;104919;1274;76020;-70
2022/04/12 03:46:46;;;;;;;7.30;4.40;;;;;;;2.16;80.24;100828.05;104900;1274;71155;-70
2022/04/12 03:49:13;;;;;;;10.10;5.10;;;;;;;2.20;80.35;100826.98;104811;1274;73087;-70
2022/04/12 03:51:40;;;;;;;11.10;6.30;;;;;;;2.26;80.27;100827.11;104854;1274;61625;-73
2022/04/12 03:54:06;;;;;;;11.40;7.20;;;;;;;2.31;80.10;100828.66;104852;1274;61685;-69
2022/04/12 03:56:34;;;;;;;11.20;6.90;;;;;;;2.34;79.94;100829.58;104770;1275;76026;-70
2022/04/12 03:59:01;;;;;;;11.10;6.40;;;;;;;2.37;79.81;100827.80;104819;1275;71484;-70
2022/04/12 04:01:28;;;;;;;13.30;6.90;;;;;;;2.40;79.50;100823.05;104854;1274;74089;-70
2022/04/12 04:03:56;;;;;;;13.70;7.10;;;;;;;2.43;79.64;100824.86;104864;1274;61782;-71
2022/04/12 04:06:23;;;;;;;12.10;5.60;;;;;;;2.46;79.39;100827.48;104762;1274;62503;-71
2022/04/12 04:08:49;;;;;;;11.20;6.90;;;;;;;2.50;79.51;100830.17;104849;1275;74846;-71
2022/04/12 04:11:16;;;;;;;12.10;6.60;;;;;;;2.53;79.36;100833.89;104884;1274;73138;-71
2022/04/12 04:13:43;;;;;;;10.30;6.00;;;;;;;2.56;79.23;100835.59;104707;1275;73010;-70
2022/04/12 04:16:10;;;;;;;9.50;5.90;;;;;;;2.59;79.06;100837.12;104863;1274;62316;-70
2022/04/12 04:18:36;;;;;;;9.20;5.20;;;;;;;2.62;79.03;100835.30;104689;1278;61288;-72
2022/04/12 04:21:06;;;;;;;10.10;5.70;;;;;;;2.64;78.87;100833.89;104930;1274;74961;-70
2022/04/12 04:23:34;;;;;;;10.30;5.40;;;;;;;2.68;78.84;100834.84;104741;1274;71595;-69
2022/04/12 04:26:01;;;;;;;10.90;6.10;;;;;;;2.71;78.54;100829.73;104881;1274;72966;-69
2022/04/12 04:28:33;;;;;;;8.10;4.90;;;;;;;2.74;78.45;100830.21;104889;1274;61256;-69
2022/04/12 04:31:00;;;;;;;10.70;4.80;;;;;;;2.75;78.53;100825.35;104749;1275;62108;-72
2022/04/12 04:33:27;;;;;;;8.00;5.10;;;;;;;2.79;78.12;100823.27;104814;1274;62431;-68
2022/04/12 04:35:54;;;;;;;11.80;5.40;;;;;;;2.82;78.01;100821.52;104857;1274;71494;-71
2022/04/12 04:38:21;;;;;;;11.80;5.20;;;;;;;2.83;77.70;100826.98;104841;1274;74388;-71
2022/04/12 04:40:48;;;;;;;9.80;5.40;;;;;;;2.83;78.10;100834.33;104822;1274;61241;-71
2022/04/12 04:43:15;;;;;;;8.40;4.60;;;;;;;2.83;77.86;100839.38;104855;1274;61336;-69
2022/04/12 04:45:45;;;;;;;9.40;4.90;;;;;;;2.83;77.99;100836.09;104871;1274;74990;-71
2022/04/12 04:48:13;;;;;;;12.50;5.80;;;;;;;2.82;77.89;100838.56;104718;1275;71385;-71
2022/04/12 04:50:40;;;;;;;9.90;4.00;;;;;;;2.82;77.96;100844.55;104851;1274;72956;-71
2022/04/12 04:53:10;;;;;;;9.60;5.70;;;;;;;2.82;78.00;100852.61;104894;1274;61297;-69
2022/04/12 04:55:39;;;;;;;14.10;6.80;;;;;;;2.81;78.17;100857.05;104850;1275;61791;-70
2022/04/12 04:58:06;;;;;;;10.60;5.80;;;;;;;2.81;77.93;100856.50;104922;1274;76116;-70
2022/04/12 05:00:34;;;;;;;9.80;5.80;;;;;;;2.81;78.09;100863.65;104864;1274;61285;-71
2022/04/12 05:03:03;;;;;;;11.00;5.90;;;;;;;2.82;78.24;100861.84;104936;1274;73126;-69
2022/04/12 05:05:30;;;;;;;9.00;4.90;;;;;;;2.84;78.30;100870.27;104866;1272;62809;-71
2022/04/12 05:07:58;;;;;;;11.30;5.70;;;;;;;2.84;78.42;100861.66;104757;1275;61395;-70
2022/04/12 05:10:29;;;;;;;11.10;6.10;;;;;;;2.86;78.56;100863.27;104757;1275;76207;-73
2022/04/12 05:12:57;;;;;;;8.20;5.10;;;;;;;2.89;78.64;100866.59;104812;1274;70057;-72
2022/04/12 05:15:24;;;;;;;9.10;5.30;;;;;;;2.91;78.54;100868.55;104866;1274;74014;-71
2022/04/12 05:17:52;;;;;;;8.80;5.10;;;;;;;2.93;78.80;100872.73;104742;1275;61460;-71
2022/04/12 05:20:21;;;;;;;12.00;6.00;;;;;;;2.97;78.72;100872.59;104948;1274;61426;-71
2022/04/12 05:22:48;;;;;;;7.90;5.30;;;;;;;3.00;78.69;100868.46;104948;1274;76124;-68
2022/04/12 05:25:15;;;;;;;10.80;5.60;;;;;;;3.04;78.60;100866.80;104812;1274;71327;-72
2022/04/12 05:27:43;;;;;;;9.80;5.40;;;;;;;3.09;78.49;100873.04;104848;1274;73165;-72
2022/04/12 05:30:13;;;;;;;7.50;4.60;;;;;;;3.15;78.56;100878.14;104777;1277;62490;-72
2022/04/12 05:32:40;;;;;;;10.50;4.80;;;;;;;3.21;78.48;100875.71;104914;1274;61851;-69
2022/04/12 05:35:09;;;;;;;9.20;5.30;;;;;;;3.29;78.41;100877.86;104718;1275;75006;-71
2022/04/12 05:37:47;;;;;;;10.20;5.10;;;;;;;3.37;78.22;100879.86;104887;1274;71397;-73
2022/04/12 05:40:15;;;;;;;12.60;5.80;;;;;;;3.46;77.92;100880.73;104913;1274;73055;-73
2022/04/12 05:42:42;;;;;;;11.10;4.70;;;;;;;3.54;77.71;100873.64;104910;1274;61246;-71
2022/04/12 05:45:11;;;;;;;7.50;4.10;;;;;;;3.63;77.72;100867.61;104860;1274;61217;-70
2022/04/12 05:47:52;;;;;;;8.30;4.80;;;;;;;3.72;77.74;100866.37;104945;1274;74923;-70
2022/04/12 05:50:21;;;;;;;7.20;4.20;;;;;;;3.82;77.75;100865.51;104856;1274;71527;-68
2022/04/12 05:52:49;;;;;;;8.00;5.00;;;;;;;3.92;77.75;100860.85;104869;1274;74424;-71
2022/04/12 05:55:19;;;;;;;8.30;4.70;;;;;;;4.02;77.70;100861.96;104877;1274;61718;-72
2022/04/12 05:57:52;;;;;;;7.40;4.90;;;;;;;4.11;77.37;100861.73;104916;1274;61248;-70
2022/04/12 06:00:20;;;;;;;6.20;4.20;;;;;;;4.21;77.57;100857.35;104906;1274;74971;-69
2022/04/12 06:02:49;;;;;;;9.80;5.20;;;;;;;4.32;77.18;100859.83;104816;1275;70571;-71
2022/04/12 06:05:16;;;;;;;10.70;5.10;;;;;;;4.43;77.30;100857.61;104857;1275;72968;-72
2022/04/12 06:07:44;;;;;;;5.50;3.40;;;;;;;4.54;77.06;100857.55;104873;1274;61359;-69
2022/04/12 06:10:12;;;;;;;8.30;4.10;;;;;;;4.63;76.70;100856.79;104874;1274;61266;-70
2022/04/12 06:12:39;;;;;;;11.70;5.20;;;;;;;4.71;76.58;100855.20;104873;1275;75043;-69
2022/04/12 06:15:08;;;;;;;11.50;3.80;;;;;;;4.80;76.60;100847.91;104813;1274;72362;-73
2022/04/12 06:17:36;;;;;;;9.10;4.90;;;;;;;4.90;76.37;100844.48;104779;1274;72967;-70
2022/04/12 06:20:05;;;;;;;6.20;3.40;;;;;;;5.00;75.87;100845.70;104861;1274;61492;-72
2022/04/12 06:22:33;;;;;;;8.00;4.40;;;;;;;5.10;75.36;100846.36;104813;1274;61327;-70
2022/04/12 06:25:00;;;;;;;6.20;3.30;;;;;;;5.23;75.05;100851.67;104801;1274;74881;-69
2022/04/12 06:27:35;;;;;;;9.70;4.90;;;;;;;5.36;74.75;100861.58;104758;1277;71354;-71
2022/04/12 06:30:10;;;;;;;7.10;3.70;;;;;;;5.53;74.37;100856.76;104901;1274;73007;-70
2022/04/12 06:32:37;;;;;;;;;;;;;;;5.68;74.01;100858.05;104863;1274;62632;-72
2022/04/12 06:35:06;;;;;;;7.30;4.20;;;;;;;5.81;74.01;100865.13;104786;1275;61343;-70
2022/04/12 06:37:33;;;;;;;9.90;3.40;;;;;;;5.98;73.71;100861.71;104743;1274;75017;-71
2022/04/12 06:40:00;;;;;;;6.70;3.50;;;;;;;6.17;73.65;100852.92;104870;1274;71554;-69
2022/04/12 06:42:27;;;;;;;9.30;3.90;;;;;;;6.37;72.54;100845.08;104854;1274;74274;-68
2022/04/12 06:44:54;;;;;;;10.40;4.20;;;;;;;6.55;71.76;100848.45;104687;1274;61469;-68
2022/04/12 06:47:21;;;;;;;5.90;3.80;;;;;;;6.74;71.44;100842.79;104848;1274;61220;-69
2022/04/12 06:49:50;;;;;;;6.20;3.40;;;;;;;6.95;70.11;100841.99;104823;1274;74025;-74
2022/04/12 06:52:22;;;;;;;5.70;3.50;;;;;;;7.14;69.71;100845.45;104923;1274;71512;-69
2022/04/12 06:54:49;;;;;;;6.70;3.70;;;;;;;7.30;68.39;100847.77;104868;1274;74041;-73
2022/04/12 06:57:17;;;;;;;5.10;3.60;;;;;;;7.43;68.16;100848.83;104845;1275;61258;-71
2022/04/12 06:59:44;;;;;;;5.90;4.00;;;;;;;7.55;67.71;100849.19;104910;1274;61244;-72
2022/04/12 07:02:11;;;;;;;5.70;3.40;;;;;;;7.65;66.77;100850.52;104887;1274;76076;-69
2022/04/12 07:04:38;;;;;;;5.60;3.30;;;;;;;7.70;65.59;100852.45;104900;1274;71451;-71
2022/04/12 07:07:04;;;;;;;6.80;4.50;;;;;;;7.73;65.61;100848.83;104886;1274;73977;-71
2022/04/12 07:09:31;;;;;;;6.80;3.80;;;;;;;7.78;65.54;100854.55;104783;1277;61797;-71
2022/04/12 07:12:00;;;;;;;8.30;4.30;;;;;;;7.85;65.85;100859.49;104863;1274;61696;-70
2022/04/12 07:14:29;;;;;;;7.50;3.80;;;;;;;7.92;65.85;100862.13;104864;1274;76017;-71
2022/04/12 07:16:56;;;;;;;5.80;2.90;;;;;;;8.01;65.39;100866.91;104855;1275;73036;-71
2022/04/12 07:19:23;;;;;;;7.70;3.80;;;;;;;8.07;64.53;100872.58;104867;1274;73183;-69
2022/04/12 07:21:50;;;;;;;8.20;4.10;;;;;;;8.13;64.13;100869.70;104754;1275;62435;-71
2022/04/12 07:24:17;;;;;;;4.40;3.20;;;;;;;8.23;64.51;100871.36;104834;1274;61253;-71
2022/04/12 07:26:44;;;;;;;6.00;3.40;;;;;;;8.33;64.92;100866.74;104766;1274;76014;-69
2022/04/12 07:29:11;;;;;;;6.00;3.80;;;;;;;8.43;64.87;100866.18;104891;1274;71189;-69
2022/04/12 07:31:38;;;;;;;8.10;3.70;;;;;;;8.53;64.15;100869.83;104859;1274;74033;-69
2022/04/12 07:34:05;;;;;;;6.30;3.90;;;;;;;8.59;63.69;100872.77;104807;1274;61705;-73
2022/04/12 07:36:31;;;;;;;7.30;3.60;;;;;;;8.63;63.54;100868.52;104802;1274;61800;-72
2022/04/12 07:38:59;;;;;;;5.90;3.40;;;;;;;8.68;63.77;100870.77;104865;1274;61173;-71
2022/04/12 07:41:25;;;;;;;6.70;3.50;;;;;;;8.74;64.40;100870.41;104786;1275;72455;-68
2022/04/12 07:43:53;;;;;;;4.50;2.60;;;;;;;8.77;64.33;100875.02;104874;1274;72924;-68
2022/04/12 07:46:20;;;;;;;4.30;2.90;;;;;;;8.76;63.02;100872.94;104862;1274;61216;-68
2022/04/12 07:48:48;;;;;;;9.40;5.00;;;;;;;8.72;62.15;100878.48;104768;1275;61413;-71
2022/04/12 07:51:15;;;;;;;6.90;4.20;;;;;;;8.75;62.38;100882.95;104874;1274;75963;-73
2022/04/12 07:53:42;;;;;;;6.70;4.30;;;;;;;8.77;61.69;100884.35;104760;1276;71306;-70
2022/04/12 07:56:09;;;;;;;7.00;4.50;;;;;;;8.80;61.15;100885.25;104855;1274;73017;-71
2022/04/12 07:58:36;;;;;;;10.60;4.40;;;;;;;8.92;61.75;100891.27;104861;1274;61129;-70
2022/04/12 08:01:05;;;;;;;5.50;3.70;;;;;;;9.09;61.19;100892.34;104867;1274;61403;-68
2022/04/12 08:03:32;;;;;;;12.40;3.40;;;;;;;9.23;60.20;100891.95;104874;1274;75177;-69
2022/04/12 08:05:59;;;;;;;6.00;3.80;;;;;;;9.35;59.73;100891.56;104835;1274;71516;-70
2022/04/12 08:08:26;;;;;;;8.10;4.50;;;;;;;9.49;60.34;100887.38;104855;1274;61351;-71
2022/04/12 08:10:52;;;;;;;7.80;4.50;;;;;;;9.69;60.74;100884.70;104696;1277;61221;-73
2022/04/12 08:13:19;;;;;;;6.30;4.30;;;;;;;9.95;59.61;100883.90;104679;1274;61239;-73
2022/04/12 08:15:46;;;;;;;6.80;4.40;;;;;;;10.12;59.20;100888.04;104830;1274;74719;-73
2022/04/12 08:18:13;;;;;;;6.60;3.70;;;;;;;10.28;59.56;100885.89;104851;1274;71399;-72
2022/04/12 08:20:39;;;;;;;7.60;4.30;;;;;;;10.38;58.55;100879.45;104707;1274;72936;-73
2022/04/12 08:23:06;;;;;;;8.30;4.10;;;;;;;10.47;59.05;100875.61;104830;1274;61270;-71
2022/04/12 08:25:33;;;;;;;7.30;4.30;;;;;;;10.57;58.75;100876.08;104720;1276;61858;-68
2022/04/12 08:28:00;;;;;;;7.20;4.20;;;;;;;10.68;59.00;100875.48;104797;1274;75960;-72
2022/04/12 08:30:27;;;;;;;5.70;4.20;;;;;;;10.78;58.88;100883.34;104694;1275;72805;-70
2022/04/12 08:32:53;;;;;;;7.70;3.90;;;;;;;10.87;57.97;100887.29;104683;1274;72709;-70
2022/04/12 08:35:20;;;;;;;5.90;3.70;;;;;;;10.95;58.29;100895.39;104691;1274;61642;-74
2022/04/12 08:37:47;;;;;;;6.10;4.20;;;;;;;11.11;58.55;100897.63;104831;1274;61243;-72
2022/04/12 08:40:14;;;;;;;5.00;3.60;;;;;;;11.30;58.72;100901.36;104841;1274;74912;-73
2022/04/12 08:42:41;;;;;;;5.10;3.20;;;;;;;11.48;57.88;100894.25;104888;1274;71142;-72
2022/04/12 08:45:08;;;;;;;4.80;3.10;;;;;;;11.60;57.07;100891.17;104953;1274;73011;-72
2022/04/12 08:47:35;;;;;;;6.00;3.70;;;;;;;11.74;56.90;100881.61;104678;1274;61273;-71
2022/04/12 08:50:05;;;;;;;6.30;4.10;;;;;;;11.90;56.42;100868.80;104895;1274;61313;-71
2022/04/12 08:52:34;;;;;;;8.30;4.20;;;;;;;12.04;55.83;100868.40;104854;1274;76111;-71
2022/04/12 08:55:01;;;;;;;8.00;3.60;;;;;;;12.19;56.15;100864.83;104750;1274;71556;-72
2022/04/12 08:57:29;;;;;;;7.70;4.00;;;;;;;12.35;55.86;100864.36;104800;1274;71983;-71
2022/04/12 08:59:56;;;;;;;5.80;3.90;;;;;;;12.45;52.80;100860.57;104810;1274;62034;-72
2022/04/12 09:02:23;;;;;;;9.90;4.20;;;;;;;12.55;52.26;100861.13;104754;1274;61985;-69
2022/04/12 09:04:50;;;;;;;7.20;4.30;;;;;;;12.66;51.99;100866.42;104748;1274;73440;-71
2022/04/12 09:07:25;;;;;;;7.90;4.10;;;;;;;12.72;51.29;100863.71;104821;1274;72420;-72
2022/04/12 09:09:52;;;;;;;5.90;3.30;;;;;;;12.88;52.00;100866.15;104909;1274;74802;-74
2022/04/12 09:12:19;;;;;;;6.60;4.50;;;;;;;13.03;52.25;100865.83;104859;1274;61358;-75
2022/04/12 09:14:52;;;;;;;6.40;4.00;;;;;;;13.13;52.01;100860.37;104976;1274;61256;-74
2022/04/12 09:17:26;;;;;;;5.30;4.00;;;;;;;13.22;51.31;100857.61;104864;1275;75729;-75
2022/04/12 09:19:55;;;;;;;8.80;3.80;;;;;;;13.28;51.40;100857.84;104956;1274;72458;-74
2022/04/12 09:22:23;;;;;;;5.80;3.80;;;;;;;13.32;51.21;100856.39;104913;1274;74017;-74
2022/04/12 09:24:53;;;;;;;5.80;3.80;;;;;;;13.35;50.69;100858.14;104908;1274;61778;-77
2022/04/12 09:27:22;;;;;;;7.10;4.20;;;;;;;13.28;49.03;100860.67;104906;1275;61393;-74
2022/04/12 09:29:54;;;;;;;5.90;4.20;;;;;;;13.25;49.74;100860.19;104974;1274;75996;-74
2022/04/12 09:32:26;;;;;;;6.50;4.00;;;;;;;13.29;50.86;100861.40;104848;1275;71516;-74
2022/04/12 09:34:56;;;;;;;6.20;4.00;;;;;;;13.38;50.93;100858.61;104957;1274;71681;-73
2022/04/12 09:37:25;;;;;;;4.70;3.60;;;;;;;13.48;50.38;100853.98;104923;1274;61275;-75
2022/04/12 09:39:59;;;;;;;6.70;3.80;;;;;;;13.63;51.00;100846.23;104981;1274;61213;-74
2022/04/12 09:42:39;;;;;;;9.50;4.10;;;;;;;13.77;50.25;100842.83;104794;1275;74755;-74
2022/04/12 09:45:08;;;;;;;6.20;4.30;;;;;;;13.90;49.97;100840.71;104814;1277;70975;-72
2022/04/12 09:47:35;;;;;;;7.30;4.30;;;;;;;14.04;50.24;100841.20;104876;1274;74109;-73
2022/04/12 09:50:30;;;;;;;8.90;4.60;;;;;;;14.25;50.60;100838.05;104861;1274;62565;-74
2022/04/12 09:52:58;;;;;;;5.80;4.10;;;;;;;14.45;49.51;100836.08;104886;1274;61240;-74
2022/04/12 09:55:43;;;;;;;6.40;3.60;;;;;;;14.60;48.83;100828.67;104785;1274;75751;-73
2022/04/12 09:58:13;;;;;;;6.30;4.30;;;;;;;14.74;48.43;100823.68;104858;1274;71602;-71
2022/04/12 10:00:42;;;;;;;5.90;3.70;;;;;;;14.89;48.69;100826.38;104923;1274;72746;-74
2022/04/12 10:03:14;;;;;;;6.00;3.80;;;;;;;15.02;47.91;100817.32;104873;1274;62450;-73
2022/04/12 10:05:43;;;;;;;7.90;4.00;;;;;;;15.05;47.12;100807.67;104810;1275;61324;-73
2022/04/12 10:08:11;;;;;;;5.80;3.90;;;;;;;15.05;45.91;100807.63;104942;1274;74286;-75
2022/04/12 10:10:43;;;;;;;7.90;4.00;;;;;;;15.08;46.25;100804.07;104891;1274;70152;-74
2022/04/12 10:13:12;;;;;;;7.10;4.60;;;;;;;15.12;46.71;100797.50;104713;1274;74088;-74
2022/04/12 10:15:40;;;;;;;7.40;4.30;;;;;;;15.17;46.71;100793.81;104994;1274;61362;-73
2022/04/12 10:18:08;;;;;;;7.80;4.10;;;;;;;15.24;46.70;100794.36;104978;1274;61240;-71
2022/04/12 10:20:36;;;;;;;8.20;4.70;;;;;;;15.32;46.33;100796.76;104912;1274;75219;-73
2022/04/12 10:23:03;;;;;;;6.10;3.90;;;;;;;15.43;46.32;100791.58;104852;1274;71373;-73
2022/04/12 10:25:30;;;;;;;8.70;4.50;;;;;;;15.54;46.13;100788.22;104924;1274;71927;-73
2022/04/12 10:27:59;;;;;;;9.20;4.90;;;;;;;15.68;45.68;100775.25;104907;1274;61959;-73
2022/04/12 10:30:28;;;;;;;11.00;4.60;;;;;;;15.86;46.09;100774.58;104938;1274;61338;-73
2022/04/12 10:33:05;;;;;;;6.50;4.30;;;;;;;16.00;44.68;100766.31;104899;1274;75441;-75
2022/04/12 10:35:57;;;;;;;8.70;4.90;;;;;;;16.01;43.84;100768.66;104921;1274;72379;-71
2022/04/12 10:38:26;;;;;;;7.10;4.10;;;;;;;16.05;43.39;100775.08;104909;1274;72817;-73
2022/04/12 10:40:57;;;;;;;5.70;3.60;;;;;;;16.12;43.82;100774.65;104925;1274;61765;-74
2022/04/12 10:43:30;;;;;;;8.50;5.10;;;;;;;16.19;44.76;100773.73;104841;1274;61382;-74
2022/04/12 10:45:58;;;;;;;9.10;4.60;;;;;;;16.24;44.40;100769.88;104915;1274;74888;-73
2022/04/12 10:48:28;;;;;;;8.00;4.60;;;;;;;16.31;44.56;100771.60;104727;1275;72439;-73
2022/04/12 10:50:56;;;;;;;6.90;4.70;;;;;;;16.37;44.05;100767.38;104858;1275;71931;-75
2022/04/12 10:53:38;;;;;;;6.00;3.90;;;;;;;16.46;43.77;100765.41;104819;1274;61666;-74
2022/04/12 10:56:09;;;;;;;8.40;4.30;;;;;;;16.56;43.46;100769.56;104853;1274;61308;-73
2022/04/12 10:58:44;;;;;;;9.10;4.60;;;;;;;16.70;43.53;100772.23;104874;1274;76327;-73
2022/04/12 11:01:27;;;;;;;9.50;5.60;;;;;;;16.78;43.12;100763.38;104853;1274;71673;-73
2022/04/12 11:03:55;;;;;;;6.70;4.00;;;;;;;16.96;44.43;100763.17;104800;1274;73151;-75
2022/04/12 11:06:28;;;;;;;7.80;4.90;;;;;;;17.12;44.12;100765.38;104828;1274;61279;-73
2022/04/12 11:09:07;;;;;;;7.00;4.70;;;;;;;17.31;44.59;100766.89;104743;1274;61896;-74
2022/04/12 11:11:41;;;;;;;8.50;4.40;;;;;;;17.49;43.20;100754.26;104838;1274;74942;-72
2022/04/12 11:14:36;;;;;;;7.90;4.60;;;;;;;17.57;41.84;100748.09;104900;1274;71805;-73
2022/04/12 11:17:12;;;;;;;5.70;3.90;;;;;;;17.64;41.52;100744.17;104880;1274;75423;-73
2022/04/12 11:19:44;;;;;;;9.30;4.90;;;;;;;17.70;40.91;100746.23;104859;1274;61351;-73
2022/04/12 11:22:13;;;;;;;6.40;4.30;;;;;;;17.82;42.69;100743.45;105018;1274;61220;-73
2022/04/12 11:24:40;;;;;;;8.70;4.80;;;;;;;17.99;42.22;100740.81;104898;1274;76488;-74
2022/04/12 11:27:09;;;;;;;6.80;3.80;;;;;;;18.13;42.32;100743.59;104867;1274;71387;-75
2022/04/12 11:29:37;;;;;;;8.60;4.70;;;;;;;18.28;41.87;100746.23;104878;1274;71949;-74
2022/04/12 11:32:05;;;;;;;9.20;4.80;;;;;;;18.40;40.36;100748.07;104884;1274;61371;-73